Aeroporto :
LOGIN :

Iscrizione | Disclaimer

   EN    FR    IT 

 










Sommario :    VFR   VFR Marginale   IFR   IFR Intensivo   IFR Molto Intensivo
Visibilità : 
Base nubi : 
>= 8 km
>= 3000ft
5 / 8 km
1000 / 3000 ft
1500m / 5 km
500 / 1000 ft
800 / 1500m
200 / 500 ft
< 800m
< 200 ft
Simboli :   Temporali  Nebbia  Neve Forte  Precipitazioni Forti  Vento > 20 kt
SIGMETs :   Varie  Temporali  Ghiacco  Turbolenza  Onda orograficha  Ceneri Vulcaniche






- Altitudine del aeroporto : 277 ft
- Codice IATA : JER


EGJJ - Jersey

ULTIMO METAR :
  • 140620Z 08009KT 9999 -RA FEW007 12/12 Q1005

METARs OBSOLETI :
  • 140550Z 10009KT 9999 VCSH FEW010 12/12 Q1006
  • 140520Z 11006KT 9999 FEW010 13/12 Q1006
  • 140450Z 09005KT 9999 -RA FEW009 12/11 Q1007
  • 140420Z AUTO 11004KT 9999 NCD 13/12 Q1007 REDZ
  • 140350Z AUTO 12004KT 9999 RA FEW011/// 12/11 Q1007

TAF TAF EGJJ
Valido dal 14 a 06 ore il 14 a 15 ore UTC


140459Z 1406/1415 09012KT 9999 -RA BKN012
TEMPO 1406/1415 5000 RA BKN005
PROB30
TEMPO 1408/1415 +RA BKN040CB
BECMG 1409/1411 17016KT
BECMG 1413/1415 27008KT
ATIS : +44 1534 498 073



MetMap, La meteo Aeronautica in un colpo d'occhio ! - Copyright ORBIFLY Dicembre 2007 - Disclaimer

ORBIFLY MET'MAP TEAM :

Programmazione e sviluppo : Alexandra Zaïnal
Concezione e sviluppo : Baudouin d'Aumeries
Co-Programmazione e sviluppo : Marc-Olivier Méhu
Supporto tecnico e logistico : Manuel Goepfert
Aiuto per la traduzione : Arnaldo La Scala

Contatto : metmap@orbifly.com




FONTI E CREDITI :

   NOAA